createdAt,value
2018-11-10T00:00:03.031Z,25.37
2018-11-10T00:02:31.436Z,26.33
2018-11-10T00:04:59.666Z,29.67
2018-11-10T00:07:27.891Z,25.50
2018-11-10T00:09:56.081Z,26.93
2018-11-10T00:12:24.302Z,25.57
2018-11-10T00:14:52.514Z,29.45
2018-11-10T00:17:20.719Z,26.00
2018-11-10T00:19:48.997Z,25.48
2018-11-10T00:22:17.225Z,26.93
2018-11-10T00:24:45.448Z,27.50
2018-11-10T00:27:13.663Z,24.90
2018-11-10T00:29:41.911Z,26.62
2018-11-10T00:32:10.163Z,28.15
2018-11-10T00:34:38.419Z,25.75
2018-11-10T00:37:06.637Z,26.07
2018-11-10T00:39:34.845Z,22.73
2018-11-10T00:42:03.083Z,23.40
2018-11-10T00:44:31.291Z,22.85
2018-11-10T00:46:59.516Z,25.70
2018-11-10T00:49:27.762Z,23.83
2018-11-10T00:51:55.994Z,25.08
2018-11-10T00:54:24.227Z,21.87
2018-11-10T00:56:52.457Z,20.75
2018-11-10T00:59:20.915Z,22.32
2018-11-10T01:01:49.140Z,22.70
2018-11-10T01:04:17.347Z,22.15
2018-11-10T01:06:45.661Z,19.98
2018-11-10T01:09:13.898Z,22.00
2018-11-10T01:11:42.091Z,22.48
2018-11-10T01:14:10.301Z,22.65
2018-11-10T01:16:38.562Z,19.87
2018-11-10T01:19:08.774Z,19.75
2018-11-10T01:21:36.974Z,22.95
2018-11-10T01:24:05.172Z,22.37
2018-11-10T01:26:33.372Z,21.62
2018-11-10T01:29:01.563Z,23.32
2018-11-10T01:31:29.754Z,21.95
2018-11-10T01:33:57.966Z,20.17
2018-11-10T01:36:26.171Z,21.45
2018-11-10T01:38:54.411Z,20.70
2018-11-10T01:41:22.605Z,19.62
2018-11-10T01:43:50.806Z,19.17
2018-11-10T01:46:18.997Z,20.70
2018-11-10T01:48:47.208Z,20.05
2018-11-10T01:51:15.413Z,21.62
2018-11-10T01:53:44.072Z,19.70
2018-11-10T01:56:12.297Z,19.52
2018-11-10T01:58:40.507Z,18.75
2018-11-10T02:01:08.734Z,20.70
2018-11-10T02:03:36.950Z,19.70
2018-11-10T02:06:05.215Z,18.73
2018-11-10T02:08:33.419Z,18.67
2018-11-10T02:11:01.667Z,21.12
2018-11-10T02:13:29.878Z,21.37
2018-11-10T02:15:58.075Z,20.10
2018-11-10T02:18:26.337Z,19.10
2018-11-10T02:20:54.537Z,20.52
2018-11-10T02:23:22.757Z,21.93
2018-11-10T02:25:50.966Z,22.10
2018-11-10T02:28:19.166Z,19.67
2018-11-10T02:30:47.382Z,20.15
2018-11-10T02:33:15.585Z,19.73
2018-11-10T02:35:43.782Z,18.05
2018-11-10T02:38:11.974Z,17.45
2018-11-10T02:40:40.206Z,18.57
2018-11-10T02:43:08.401Z,18.50
2018-11-10T02:45:36.697Z,19.98
2018-11-10T02:48:04.919Z,18.42
2018-11-10T02:50:33.106Z,18.92
2018-11-10T02:53:01.964Z,19.70
2018-11-10T02:55:30.209Z,18.85
2018-11-10T02:57:58.422Z,18.77
2018-11-10T03:00:26.651Z,17.02
2018-11-10T03:02:54.878Z,16.35
2018-11-10T03:05:23.106Z,16.37
2018-11-10T03:07:51.324Z,14.28
2018-11-10T03:10:19.538Z,14.33
2018-11-10T03:12:47.734Z,14.60
2018-11-10T03:15:15.954Z,13.43
2018-11-10T03:17:44.174Z,15.75
2018-11-10T03:20:13.857Z,14.90
2018-11-10T03:22:42.554Z,15.10
2018-11-10T03:25:11.223Z,15.35
2018-11-10T03:27:39.543Z,14.95
2018-11-10T03:30:07.942Z,14.47
2018-11-10T03:32:36.670Z,16.32
2018-11-10T03:35:05.688Z,15.03
2018-11-10T03:37:34.041Z,16.57
2018-11-10T03:40:02.408Z,14.70
2018-11-10T03:42:30.642Z,15.48
2018-11-10T03:44:58.882Z,16.30
2018-11-10T03:47:27.087Z,17.17
2018-11-10T03:49:55.318Z,14.25
2018-11-10T03:52:23.522Z,14.87
2018-11-10T03:54:51.751Z,15.90
2018-11-10T03:57:19.990Z,16.52
2018-11-10T03:59:48.251Z,15.05
2018-11-10T04:02:16.451Z,15.45
2018-11-10T04:04:44.705Z,16.77
2018-11-10T04:07:12.986Z,16.37
2018-11-10T04:09:41.254Z,17.92
2018-11-10T04:12:09.518Z,17.40
2018-11-10T04:14:37.753Z,15.03
2018-11-10T04:17:05.987Z,15.63
2018-11-10T04:19:34.218Z,17.02
2018-11-10T04:22:02.442Z,16.42
2018-11-10T04:24:30.687Z,16.48
2018-11-10T04:26:58.940Z,15.58
2018-11-10T04:29:27.154Z,14.87
2018-11-10T04:31:55.368Z,15.15
2018-11-10T04:34:23.597Z,15.43
2018-11-10T04:36:51.827Z,15.00
2018-11-10T04:39:20.048Z,15.05
2018-11-10T04:41:48.268Z,16.52
2018-11-10T04:44:16.497Z,14.30
2018-11-10T04:46:44.756Z,17.15
2018-11-10T04:49:13.021Z,17.17
2018-11-10T04:51:41.249Z,15.58
2018-11-10T04:54:09.479Z,15.75
2018-11-10T04:56:37.725Z,17.35
2018-11-10T04:59:05.950Z,15.38
2018-11-10T05:01:34.329Z,17.90
2018-11-10T05:04:02.457Z,15.45
2018-11-10T05:06:30.674Z,15.55
2018-11-10T05:08:58.915Z,16.15
2018-11-10T05:11:27.122Z,17.17
2018-11-10T05:13:55.354Z,17.65
2018-11-10T05:16:29.337Z,17.10
2018-11-10T05:18:57.564Z,16.77
2018-11-10T05:21:25.782Z,15.93
2018-11-10T05:23:54.089Z,16.00
2018-11-10T05:26:22.346Z,17.02
2018-11-10T05:28:50.612Z,14.58
2018-11-10T05:31:18.923Z,15.83
2018-11-10T05:33:47.151Z,16.52
2018-11-10T05:36:15.494Z,13.78
2018-11-10T05:38:43.691Z,13.20
2018-11-10T05:41:11.985Z,13.60
2018-11-10T05:43:40.257Z,13.85
2018-11-10T05:46:08.514Z,15.20
2018-11-10T05:48:36.772Z,16.07
2018-11-10T05:51:05.409Z,14.60
2018-11-10T05:53:33.656Z,15.28
2018-11-10T05:56:01.907Z,14.55
2018-11-10T05:58:30.143Z,14.68
2018-11-10T06:00:58.472Z,14.93
2018-11-10T06:03:26.700Z,14.78
2018-11-10T06:05:54.959Z,14.75
2018-11-10T06:08:23.234Z,15.23
2018-11-10T06:10:51.538Z,16.70
2018-11-10T06:13:19.817Z,16.12
2018-11-10T06:15:48.091Z,16.42
2018-11-10T06:18:16.343Z,15.45
2018-11-10T06:20:44.613Z,15.98
2018-11-10T06:23:13.010Z,18.55
2018-11-10T06:25:41.308Z,16.97
2018-11-10T06:28:09.675Z,15.85
2018-11-10T06:30:37.938Z,16.77
2018-11-10T06:33:06.236Z,17.25
2018-11-10T06:35:34.535Z,19.27
2018-11-10T06:38:02.855Z,19.10
2018-11-10T06:40:31.162Z,16.25
2018-11-10T06:42:59.444Z,18.37
2018-11-10T06:45:27.735Z,16.57
2018-11-10T06:47:55.994Z,16.05
2018-11-10T06:50:24.260Z,13.70
2018-11-10T06:52:52.598Z,14.20
2018-11-10T06:55:20.824Z,13.62
2018-11-10T06:57:49.091Z,15.88
2018-11-10T07:00:17.355Z,14.73
2018-11-10T07:02:45.623Z,14.25
2018-11-10T07:05:13.996Z,14.87
2018-11-10T07:07:42.361Z,14.80
2018-11-10T07:10:10.856Z,14.50
2018-11-10T07:12:39.127Z,14.83
2018-11-10T07:15:08.156Z,14.50
2018-11-10T07:17:36.480Z,13.03
2018-11-10T07:20:05.350Z,13.05
2018-11-10T07:22:33.854Z,13.05
2018-11-10T07:25:02.366Z,14.75
2018-11-10T07:27:30.574Z,13.90
2018-11-10T07:29:58.863Z,12.50
2018-11-10T07:32:27.192Z,13.18
2018-11-10T07:34:55.558Z,12.50
2018-11-10T07:37:23.830Z,13.58
2018-11-10T07:39:52.130Z,13.15
2018-11-10T07:42:20.449Z,11.60
2018-11-10T07:44:48.758Z,14.25
2018-11-10T07:47:17.006Z,13.08
2018-11-10T07:49:45.278Z,13.35
2018-11-10T07:52:13.553Z,13.68
2018-11-10T07:54:41.844Z,12.60
2018-11-10T07:57:10.183Z,11.68
2018-11-10T07:59:38.555Z,13.83
2018-11-10T08:02:06.865Z,14.20
2018-11-10T08:04:35.121Z,14.18
2018-11-10T08:07:03.478Z,12.78
2018-11-10T08:09:31.833Z,14.80
2018-11-10T08:12:00.185Z,15.03
2018-11-10T08:14:28.534Z,13.70
2018-11-10T08:16:56.856Z,14.30
2018-11-10T08:19:25.075Z,15.18
2018-11-10T08:21:53.316Z,15.25
2018-11-10T08:24:21.592Z,14.43
2018-11-10T08:26:49.870Z,12.47
2018-11-10T08:29:18.146Z,12.47
2018-11-10T08:31:46.435Z,11.88
2018-11-10T08:34:14.865Z,12.15
2018-11-10T08:36:43.095Z,12.15
2018-11-10T08:39:11.765Z,11.43
2018-11-10T08:41:39.963Z,12.88
2018-11-10T08:44:08.514Z,12.73
2018-11-10T08:46:36.798Z,12.03
2018-11-10T08:49:05.259Z,11.50
2018-11-10T08:51:33.479Z,13.53
2018-11-10T08:54:01.770Z,13.85
2018-11-10T08:56:30.055Z,13.38
2018-11-10T08:58:58.459Z,11.85
2018-11-10T09:01:26.698Z,13.03
2018-11-10T09:03:55.039Z,12.80
2018-11-10T09:06:23.315Z,12.40
2018-11-10T09:08:51.594Z,12.47
2018-11-10T09:11:19.907Z,13.55
2018-11-10T09:13:48.265Z,14.05
2018-11-10T09:16:16.524Z,17.15
2018-11-10T09:18:44.814Z,13.90
2018-11-10T09:21:13.130Z,13.70
2018-11-10T09:23:41.433Z,14.55
2018-11-10T09:26:09.665Z,14.38
2018-11-10T09:28:37.939Z,13.78
2018-11-10T09:31:06.359Z,12.65
2018-11-10T09:33:34.574Z,11.55
2018-11-10T09:36:02.836Z,12.90
2018-11-10T09:38:31.056Z,12.60
2018-11-10T09:40:59.390Z,13.00
2018-11-10T09:43:27.673Z,14.25
2018-11-10T09:45:55.900Z,13.38
2018-11-10T09:48:24.198Z,13.48
2018-11-10T09:50:52.499Z,12.85
2018-11-10T09:53:20.874Z,13.80
2018-11-10T09:55:49.157Z,16.05
2018-11-10T09:58:17.490Z,13.00
2018-11-10T10:00:45.747Z,13.00
2018-11-10T10:03:14.155Z,12.15
2018-11-10T10:05:42.698Z,11.93
2018-11-10T10:08:10.962Z,11.70
2018-11-10T10:10:39.313Z,11.83
2018-11-10T10:13:07.590Z,15.85
2018-11-10T10:15:35.921Z,12.13
2018-11-10T10:18:04.141Z,11.68
2018-11-10T10:20:32.397Z,11.70
2018-11-10T10:23:00.869Z,12.00
2018-11-10T10:25:29.315Z,12.18
2018-11-10T10:27:57.578Z,12.78
2018-11-10T10:30:26.420Z,13.40
2018-11-10T10:32:54.788Z,13.43
2018-11-10T10:35:23.325Z,13.05
2018-11-10T10:37:52.261Z,11.88
2018-11-10T10:40:20.540Z,13.75
2018-11-10T10:42:49.094Z,11.48
2018-11-10T10:45:19.793Z,14.35
2018-11-10T10:47:48.113Z,11.60
2018-11-10T10:50:17.739Z,13.53
2018-11-10T10:52:46.027Z,13.20
2018-11-10T10:55:15.396Z,12.45
2018-11-10T10:57:44.703Z,12.90
2018-11-10T11:00:18.861Z,12.28
2018-11-10T11:02:52.738Z,13.00
2018-11-10T11:05:26.276Z,12.75
2018-11-10T11:07:54.676Z,12.37
2018-11-10T11:10:24.014Z,11.75
2018-11-10T11:12:52.262Z,13.55
2018-11-10T11:15:21.248Z,12.20
2018-11-10T11:17:49.381Z,12.30
2018-11-10T11:20:17.666Z,13.43
2018-11-10T11:22:45.926Z,13.68
2018-11-10T11:25:14.742Z,11.45
2018-11-10T11:27:43.080Z,13.13
2018-11-10T11:30:11.446Z,12.53
2018-11-10T11:32:39.689Z,12.15
2018-11-10T11:35:09.783Z,14.63
2018-11-10T11:37:38.443Z,12.60
2018-11-10T11:40:08.643Z,11.25
2018-11-10T11:42:37.037Z,12.18
2018-11-10T11:45:06.397Z,14.80
2018-11-10T11:47:34.726Z,13.40
2018-11-10T11:50:03.026Z,11.55
2018-11-10T11:52:31.346Z,11.97
2018-11-10T11:54:59.730Z,12.13
2018-11-10T11:57:28.097Z,12.28
2018-11-10T11:59:56.286Z,13.72
2018-11-10T12:02:24.678Z,13.70
2018-11-10T12:04:52.941Z,13.78
2018-11-10T12:07:21.297Z,11.80
2018-11-10T12:09:49.590Z,13.15
2018-11-10T12:12:17.886Z,12.40
2018-11-10T12:14:46.215Z,12.07
2018-11-10T12:17:14.464Z,13.43
2018-11-10T12:19:42.694Z,12.65
2018-11-10T12:22:11.119Z,11.90
2018-11-10T12:24:39.337Z,12.33
2018-11-10T12:27:07.613Z,13.50
2018-11-10T12:29:35.922Z,12.63
2018-11-10T12:32:04.270Z,12.80
2018-11-10T12:34:32.438Z,13.13
2018-11-10T12:37:00.733Z,11.33
2018-11-10T12:39:29.009Z,12.15
2018-11-10T12:41:57.432Z,12.95
2018-11-10T12:44:25.663Z,13.13
2018-11-10T12:46:53.935Z,11.70
2018-11-10T12:49:22.218Z,13.60
2018-11-10T12:51:50.486Z,13.48
2018-11-10T12:54:18.763Z,13.10
2018-11-10T12:56:47.021Z,12.82
2018-11-10T12:59:15.272Z,12.68
2018-11-10T13:01:43.483Z,14.13
2018-11-10T13:04:11.787Z,13.80
2018-11-10T13:06:40.047Z,13.05
2018-11-10T13:09:09.660Z,14.53
2018-11-10T13:11:38.354Z,15.63
2018-11-10T13:14:07.951Z,14.25
2018-11-10T13:16:36.294Z,14.18
2018-11-10T13:19:05.001Z,14.30
2018-11-10T13:21:33.270Z,13.32
2018-11-10T13:24:01.591Z,14.90
2018-11-10T13:26:29.935Z,13.93
2018-11-10T13:28:58.263Z,13.90
2018-11-10T13:31:26.726Z,12.93
2018-11-10T13:33:54.929Z,14.33
2018-11-10T13:36:23.454Z,13.55
2018-11-10T13:38:51.815Z,13.00
2018-11-10T13:41:20.055Z,12.20
2018-11-10T13:43:48.491Z,12.35
2018-11-10T13:46:17.052Z,14.60
2018-11-10T13:48:45.458Z,14.35
2018-11-10T13:51:14.066Z,12.30
2018-11-10T13:53:42.077Z,14.10
2018-11-10T13:56:10.346Z,14.50
2018-11-10T13:58:38.622Z,14.40
2018-11-10T14:01:07.694Z,13.18
2018-11-10T14:03:36.103Z,14.07
2018-11-10T14:06:04.392Z,12.25
2018-11-10T14:08:32.759Z,15.90
2018-11-10T14:11:01.056Z,13.90
2018-11-10T14:13:29.347Z,14.58
2018-11-10T14:15:57.648Z,14.75
2018-11-10T14:18:25.922Z,13.90
2018-11-10T14:20:54.238Z,13.20
2018-11-10T14:23:22.591Z,13.18
2018-11-10T14:25:50.917Z,14.15
2018-11-10T14:28:19.176Z,14.98
2018-11-10T14:30:47.423Z,14.28
2018-11-10T14:33:15.810Z,14.13
2018-11-10T14:35:44.078Z,13.43
2018-11-10T14:38:12.381Z,12.90
2018-11-10T14:40:40.787Z,14.23
2018-11-10T14:43:09.050Z,13.43
2018-11-10T14:45:37.297Z,14.30
2018-11-10T14:48:05.566Z,14.90
2018-11-10T14:50:33.833Z,21.68
2018-11-10T14:53:02.347Z,16.12
2018-11-10T14:55:30.394Z,15.08
2018-11-10T14:57:58.720Z,14.80
2018-11-10T15:00:28.692Z,15.35
2018-11-10T15:02:57.170Z,15.00
2018-11-10T15:05:25.660Z,16.40
2018-11-10T15:07:53.932Z,17.67
2018-11-10T15:10:22.244Z,14.33
2018-11-10T15:12:50.613Z,15.48
2018-11-10T15:15:19.438Z,15.68
2018-11-10T15:17:48.019Z,15.05
2018-11-10T15:20:17.332Z,16.55
2018-11-10T15:22:45.619Z,17.50
2018-11-10T15:25:15.394Z,16.87
2018-11-10T15:27:43.618Z,16.52
2018-11-10T15:30:14.114Z,17.02
2018-11-10T15:32:43.279Z,18.70
2018-11-10T15:35:13.973Z,16.97
2018-11-10T15:37:43.388Z,17.95
2018-11-10T15:40:12.450Z,15.35
2018-11-10T15:42:40.704Z,18.35
2018-11-10T15:45:09.959Z,16.20
2018-11-10T15:47:38.223Z,16.70
2018-11-10T15:50:07.791Z,16.82
2018-11-10T15:52:36.498Z,18.45
2018-11-10T15:55:05.206Z,18.52
2018-11-10T15:57:33.447Z,17.62
2018-11-10T16:00:01.808Z,20.35
2018-11-10T16:02:30.018Z,20.77
2018-11-10T16:04:58.375Z,21.00
2018-11-10T16:07:26.786Z,20.27
2018-11-10T16:09:55.066Z,22.02
2018-11-10T16:12:23.581Z,20.27
2018-11-10T16:14:51.850Z,19.52
2018-11-10T16:17:20.106Z,20.43
2018-11-10T16:19:48.371Z,20.77
2018-11-10T16:22:16.581Z,19.00
2018-11-10T16:24:44.939Z,19.25
2018-11-10T16:27:13.273Z,20.37
2018-11-10T16:29:41.727Z,21.57
2018-11-10T16:32:10.306Z,22.67
2018-11-10T16:34:38.715Z,21.10
2018-11-10T16:37:07.719Z,22.35
2018-11-10T16:39:35.979Z,20.75
2018-11-10T16:42:05.062Z,20.20
2018-11-10T16:44:33.623Z,22.22
2018-11-10T16:47:02.006Z,23.27
2018-11-10T16:49:30.409Z,20.48
2018-11-10T16:51:58.885Z,21.37
2018-11-10T16:54:27.185Z,22.48
2018-11-10T16:56:55.559Z,24.27
2018-11-10T16:59:24.791Z,24.05
2018-11-10T17:01:53.066Z,21.80
2018-11-10T17:04:21.338Z,23.87
2018-11-10T17:06:49.959Z,25.00
2018-11-10T17:09:18.215Z,24.82
2018-11-10T17:11:46.833Z,24.55
2018-11-10T17:14:15.092Z,25.37
2018-11-10T17:16:43.382Z,25.92
2018-11-10T17:19:11.583Z,27.52
2018-11-10T17:21:40.242Z,26.05
2018-11-10T17:24:08.406Z,24.92
2018-11-10T17:26:36.609Z,25.17
2018-11-10T17:29:04.899Z,24.80
2018-11-10T17:31:33.129Z,28.62
2018-11-10T17:34:01.362Z,27.10
2018-11-10T17:36:29.590Z,25.92
2018-11-10T17:38:57.875Z,26.70
2018-11-10T17:41:26.071Z,29.10
2018-11-10T17:43:54.316Z,27.48
2018-11-10T17:46:22.569Z,27.85
2018-11-10T17:48:50.785Z,28.25
2018-11-10T17:51:19.060Z,28.77
2018-11-10T17:53:47.363Z,29.63
2018-11-10T17:56:15.632Z,31.80
2018-11-10T17:58:44.040Z,26.45
2018-11-10T18:01:12.276Z,30.45
2018-11-10T18:03:40.536Z,27.60
2018-11-10T18:06:08.777Z,28.47
2018-11-10T18:08:37.055Z,28.50
2018-11-10T18:11:06.007Z,32.17
2018-11-10T18:13:34.250Z,29.95
2018-11-10T18:16:02.657Z,29.27
2018-11-10T18:18:30.908Z,28.95
2018-11-10T18:20:59.134Z,27.65
2018-11-10T18:23:27.372Z,30.02
2018-11-10T18:25:55.635Z,27.15
2018-11-10T18:28:23.848Z,27.27
2018-11-10T18:30:52.103Z,29.02
2018-11-10T18:33:20.361Z,29.57
2018-11-10T18:35:48.578Z,27.45
2018-11-10T18:38:16.932Z,29.23
2018-11-10T18:40:45.148Z,27.32
2018-11-10T18:43:14.263Z,29.45
2018-11-10T18:45:42.542Z,28.27
2018-11-10T18:48:10.924Z,25.82
2018-11-10T18:50:39.219Z,26.35
2018-11-10T18:53:07.504Z,28.35
2018-11-10T18:55:35.776Z,27.67
2018-11-10T18:58:04.213Z,26.82
2018-11-10T19:00:32.596Z,31.93
2018-11-10T19:03:00.812Z,30.27
2018-11-10T19:05:29.054Z,26.97
2018-11-10T19:07:57.353Z,27.40
2018-11-10T19:10:25.614Z,29.80
2018-11-10T19:12:53.883Z,30.43
2018-11-10T19:15:22.212Z,34.90
2018-11-10T19:17:50.660Z,27.48
2018-11-10T19:20:19.132Z,28.73
2018-11-10T19:22:47.544Z,29.32
2018-11-10T19:25:15.812Z,29.65
2018-11-10T19:27:44.095Z,26.85
2018-11-10T19:30:18.050Z,29.37
2018-11-10T19:32:47.142Z,26.97
2018-11-10T19:35:16.137Z,28.45
2018-11-10T19:37:44.736Z,27.10
2018-11-10T19:40:13.035Z,26.45
2018-11-10T19:42:42.221Z,28.92
2018-11-10T19:45:10.981Z,28.25
2018-11-10T19:47:40.499Z,29.50
2018-11-10T19:50:09.280Z,28.15
2018-11-10T19:52:37.411Z,25.90
2018-11-10T19:55:08.347Z,26.12
2018-11-10T19:57:36.610Z,28.57
2018-11-10T20:00:08.727Z,27.90
2018-11-10T20:02:36.954Z,29.20
2018-11-10T20:05:09.841Z,28.67
2018-11-10T20:07:38.213Z,24.02
2018-11-10T20:10:06.730Z,24.20
2018-11-10T20:12:34.967Z,23.00
2018-11-10T20:15:03.388Z,22.02
2018-11-10T20:17:31.599Z,25.37
2018-11-10T20:19:59.848Z,24.07
2018-11-10T20:22:28.107Z,27.10
2018-11-10T20:24:56.318Z,26.45
2018-11-10T20:27:24.558Z,28.47
2018-11-10T20:29:52.802Z,26.33
2018-11-10T20:32:21.066Z,26.80
2018-11-10T20:34:49.290Z,25.17
2018-11-10T20:37:17.558Z,26.60
2018-11-10T20:39:45.755Z,25.48
2018-11-10T20:42:13.968Z,23.52
2018-11-10T20:44:42.236Z,26.07
2018-11-10T20:47:10.414Z,26.15
2018-11-10T20:49:38.622Z,26.57
2018-11-10T20:52:06.846Z,22.58
2018-11-10T20:54:35.050Z,27.65
2018-11-10T20:57:03.275Z,28.27
2018-11-10T20:59:31.454Z,25.37
2018-11-10T21:01:59.692Z,28.52
2018-11-10T21:04:27.921Z,28.00
2018-11-10T21:06:56.139Z,26.62
2018-11-10T21:09:24.370Z,26.65
2018-11-10T21:11:52.602Z,25.35
2018-11-10T21:14:20.987Z,26.17
2018-11-10T21:16:49.200Z,24.40
2018-11-10T21:19:17.460Z,22.60
2018-11-10T21:21:45.733Z,27.40
2018-11-10T21:24:13.987Z,24.45
2018-11-10T21:26:42.258Z,23.77
2018-11-10T21:29:10.624Z,25.37
2018-11-10T21:31:38.750Z,24.63
2018-11-10T21:34:07.047Z,24.75
2018-11-10T21:36:35.314Z,23.55
2018-11-10T21:39:04.274Z,26.60
2018-11-10T21:41:32.564Z,25.05
2018-11-10T21:44:00.833Z,24.80
2018-11-10T21:46:29.159Z,24.32
2018-11-10T21:48:57.387Z,25.10
2018-11-10T21:51:25.619Z,27.20
2018-11-10T21:53:53.847Z,21.95
2018-11-10T21:56:22.084Z,24.18
2018-11-10T21:58:50.330Z,27.07
2018-11-10T22:01:18.569Z,26.80
2018-11-10T22:03:46.774Z,26.45
2018-11-10T22:06:14.990Z,24.92
2018-11-10T22:08:43.315Z,24.72
2018-11-10T22:11:11.448Z,24.32
2018-11-10T22:13:39.710Z,24.98
2018-11-10T22:16:07.968Z,23.85
2018-11-10T22:18:36.190Z,26.23
2018-11-10T22:21:04.756Z,22.95
2018-11-10T22:23:33.011Z,26.55
2018-11-10T22:26:01.218Z,28.32
2018-11-10T22:28:29.446Z,23.42
2018-11-10T22:30:58.110Z,24.07
2018-11-10T22:33:26.746Z,24.90
2018-11-10T22:35:54.970Z,25.27
2018-11-10T22:38:23.196Z,25.30
2018-11-10T22:40:51.417Z,22.95
2018-11-10T22:43:19.630Z,23.18
2018-11-10T22:45:47.874Z,22.98
2018-11-10T22:48:16.111Z,22.75
2018-11-10T22:50:44.352Z,22.82
2018-11-10T22:53:12.560Z,25.37
2018-11-10T22:55:40.846Z,24.85
2018-11-10T22:58:09.081Z,24.50
2018-11-10T23:00:41.535Z,23.10
2018-11-10T23:03:09.755Z,25.12
2018-11-10T23:05:37.979Z,22.70
2018-11-10T23:08:06.235Z,22.75
2018-11-10T23:10:34.509Z,22.13
2018-11-10T23:13:02.735Z,22.48
2018-11-10T23:15:30.979Z,27.02
2018-11-10T23:17:59.253Z,23.35
2018-11-10T23:20:27.546Z,24.18
2018-11-10T23:22:55.830Z,23.98
2018-11-10T23:25:24.036Z,21.85
2018-11-10T23:27:52.304Z,22.40
2018-11-10T23:30:21.809Z,20.80
2018-11-10T23:32:50.061Z,22.20
2018-11-10T23:35:18.283Z,22.10
2018-11-10T23:37:46.587Z,22.13
2018-11-10T23:40:15.790Z,22.85
2018-11-10T23:42:44.315Z,24.60
2018-11-10T23:45:13.261Z,19.92
2018-11-10T23:47:41.476Z,19.73
2018-11-10T23:50:12.308Z,21.82
2018-11-10T23:52:40.564Z,20.32
2018-11-10T23:55:09.954Z,21.05
2018-11-10T23:57:38.260Z,19.50
